Time;durP1;ratioP1;P1;durP2;ratioP2;P2;SDS_P1;SDS_P2;PMS_P1;PMS_P2;Temp;Humidity;BMP_temperature;BMP_pressure;BME280_temperature;BME280_humidity;BME280_pressure;Samples;Min_cycle;Max_cycle;Signal;HPM_P1;HPM_P2
2022/04/21 00:02:00;;;;;;;19.03;12.10;;;;;;;6.90;90.54;100216.69;1699380;82;21556;-75
2022/04/21 00:04:30;;;;;;;22.77;13.33;;;;;;;6.89;90.60;100220.17;1710022;81;21111;-85
2022/04/21 00:06:57;;;;;;;35.83;17.90;;;;;;;6.88;90.53;100215.86;1703856;83;21020;-75
2022/04/21 00:09:24;;;;;;;32.33;16.27;;;;;;;6.87;90.59;100217.19;1708716;82;21922;-74
2022/04/21 00:11:52;;;;;;;26.57;14.93;;;;;;;6.85;90.54;100215.95;1711330;82;21035;-75
2022/04/21 00:14:19;;;;;;;28.63;15.30;;;;;;;6.85;90.65;100219.85;1710732;82;20981;-75
2022/04/21 00:16:47;;;;;;;31.00;16.50;;;;;;;6.84;90.71;100223.78;1700300;82;21043;-75
2022/04/21 00:19:15;;;;;;;26.73;13.50;;;;;;;6.84;90.83;100215.97;1698371;82;21623;-86
2022/04/21 00:24:29;;;;;;;22.13;13.33;;;;;;;6.87;90.97;100210.68;1704929;82;21051;-75
2022/04/21 00:26:57;;;;;;;21.67;12.97;;;;;;;6.86;90.89;100211.13;1699268;82;21078;-75
2022/04/21 00:29:24;;;;;;;19.77;12.43;;;;;;;6.88;90.93;100214.56;1675838;83;21703;-76
2022/04/21 00:31:52;;;;;;;19.43;13.20;;;;;;;6.89;90.98;100207.59;1699643;84;21230;-74
2022/04/21 00:34:19;;;;;;;20.63;12.77;;;;;;;6.89;90.96;100204.54;1698366;82;21091;-75
2022/04/21 00:36:46;;;;;;;21.77;13.60;;;;;;;6.90;91.01;100206.27;1752776;81;21018;-74
2022/04/21 00:39:14;;;;;;;21.53;13.83;;;;;;;6.90;90.86;100196.27;1759576;80;21526;-74
2022/04/21 00:41:42;;;;;;;25.13;13.77;;;;;;;6.88;90.89;100195.02;1760677;81;22022;-81
2022/04/21 00:44:09;;;;;;;19.03;12.73;;;;;;;6.89;90.96;100201.08;1754961;81;21535;-74
2022/04/21 00:46:38;;;;;;;19.97;13.63;;;;;;;6.87;90.84;100194.62;1749142;81;21911;-75
2022/04/21 00:49:07;;;;;;;24.30;13.80;;;;;;;6.86;90.84;100196.80;1748781;81;21093;-75
2022/04/21 00:51:36;;;;;;;23.20;14.57;;;;;;;6.86;90.84;100194.65;1754719;80;21052;-82
2022/04/21 00:54:04;;;;;;;19.83;13.50;;;;;;;6.84;90.83;100196.43;1758542;80;21021;-75
2022/04/21 00:56:32;;;;;;;22.97;14.37;;;;;;;6.84;91.01;100199.88;1749140;80;21052;-75
2022/04/21 00:59:01;;;;;;;24.67;14.10;;;;;;;6.84;91.06;100193.37;1755457;81;21172;-75
2022/04/21 01:04:16;;;;;;;23.40;13.53;;;;;;;6.85;91.18;100194.25;1742385;81;21049;-75
2022/04/21 01:06:43;;;;;;;22.73;14.13;;;;;;;6.85;91.23;100196.41;1746931;81;20995;-82
2022/04/21 01:09:10;;;;;;;22.03;14.77;;;;;;;6.86;91.22;100202.47;1752929;80;21025;-75
2022/04/21 01:11:39;;;;;;;22.13;14.97;;;;;;;6.84;91.13;100197.28;1748281;81;21097;-74
2022/04/21 01:14:07;;;;;;;23.63;15.40;;;;;;;6.85;91.30;100204.22;1747824;81;21163;-75
2022/04/21 01:16:35;;;;;;;23.57;15.20;;;;;;;6.88;91.37;100196.78;1761513;80;21447;-75
2022/04/21 01:19:02;;;;;;;24.50;15.90;;;;;;;6.88;91.34;100201.53;1752686;81;21601;-75
2022/04/21 01:21:30;;;;;;;24.50;15.97;;;;;;;6.88;91.33;100201.53;1756622;81;21100;-75
2022/04/21 01:23:57;;;;;;;28.77;17.23;;;;;;;6.88;91.31;100201.53;1746717;81;21101;-75
2022/04/21 01:26:38;;;;;;;27.70;16.80;;;;;;;6.90;91.47;100198.45;1740357;81;21155;-76
2022/04/21 01:29:05;;;;;;;24.93;15.93;;;;;;;6.91;91.34;100201.45;1752942;81;21100;-75
2022/04/21 01:31:32;;;;;;;29.60;17.67;;;;;;;6.91;91.31;100204.06;1748736;80;21036;-74
2022/04/21 01:34:00;;;;;;;26.17;16.70;;;;;;;6.91;91.23;100211.88;1754219;81;21673;-75
2022/04/21 01:36:27;;;;;;;26.93;16.87;;;;;;;6.90;91.17;100205.39;1755561;81;21117;-75
2022/04/21 01:41:40;;;;;;;26.00;17.97;;;;;;;6.89;91.25;100203.69;1752329;81;21027;-81
2022/04/21 01:44:07;;;;;;;24.53;16.70;;;;;;;6.90;91.30;100197.57;1753884;80;21167;-75
2022/04/21 01:46:34;;;;;;;26.63;17.13;;;;;;;6.91;91.32;100196.70;1755596;80;21267;-75
2022/04/21 01:49:01;;;;;;;27.93;17.27;;;;;;;6.91;91.29;100191.48;1739143;81;22003;-75
2022/04/21 01:51:29;;;;;;;26.47;16.70;;;;;;;6.91;91.36;100191.48;1755468;81;21073;-85
2022/04/21 01:53:57;;;;;;;23.83;17.03;;;;;;;6.92;91.32;100190.58;1752233;81;21056;-74
2022/04/21 01:56:24;;;;;;;28.03;17.77;;;;;;;6.92;91.31;100194.03;1758330;81;21521;-74
2022/04/21 01:58:53;;;;;;;26.23;17.37;;;;;;;6.94;91.32;100194.01;1750071;80;21511;-77
2022/04/21 02:01:21;;;;;;;31.53;18.57;;;;;;;6.95;91.35;100196.16;1759099;80;21157;-74
2022/04/21 02:03:49;;;;;;;29.40;19.60;;;;;;;6.96;91.36;100191.38;1754741;81;21533;-74
2022/04/21 02:06:16;;;;;;;28.07;16.93;;;;;;;6.97;91.40;100191.78;1750236;80;21026;-74
2022/04/21 02:08:43;;;;;;;28.97;18.43;;;;;;;6.97;91.40;100188.72;1754520;80;21053;-74
2022/04/21 02:11:10;;;;;;;28.20;17.80;;;;;;;6.96;91.34;100187.47;1751624;81;21566;-75
2022/04/21 02:13:38;;;;;;;26.73;18.03;;;;;;;6.96;91.35;100185.72;1737264;80;21890;-74
2022/04/21 02:16:06;;;;;;;30.43;19.10;;;;;;;6.97;91.38;100185.27;1741060;81;21157;-76
2022/04/21 02:18:33;;;;;;;31.60;18.37;;;;;;;6.96;91.36;100183.11;1722707;82;21683;-80
2022/04/21 02:21:01;;;;;;;29.30;18.23;;;;;;;6.96;91.35;100187.02;1742455;81;21001;-75
2022/04/21 02:23:28;;;;;;;27.83;17.60;;;;;;;6.97;91.42;100181.36;1736035;80;21116;-80
2022/04/21 02:25:55;;;;;;;30.87;18.47;;;;;;;6.97;91.50;100179.59;1723396;82;21117;-74
2022/04/21 02:28:23;;;;;;;40.37;21.63;;;;;;;6.98;91.54;100180.45;1731367;81;21021;-76
2022/04/21 02:30:50;;;;;;;36.77;20.00;;;;;;;7.00;91.58;100173.45;1742008;81;21171;-75
2022/04/21 02:33:17;;;;;;;31.37;17.67;;;;;;;7.01;91.57;100172.13;1742920;80;20908;-75
2022/04/21 02:35:45;;;;;;;31.83;17.87;;;;;;;7.02;91.53;100172.98;1742160;82;21092;-74
2022/04/21 02:38:12;;;;;;;64.23;29.03;;;;;;;7.03;91.53;100170.77;1734636;80;21792;-79
2022/04/21 02:40:39;;;;;;;67.20;29.67;;;;;;;7.02;91.33;100172.98;1742257;80;20996;-74
2022/04/21 02:43:07;;;;;;;53.17;26.23;;;;;;;6.99;91.25;100175.21;1735732;82;21040;-75
2022/04/21 02:45:36;;;;;;;48.57;24.67;;;;;;;6.98;91.29;100177.39;1746355;80;21126;-74
2022/04/21 02:48:04;;;;;;;51.97;26.30;;;;;;;6.98;91.46;100178.69;1742276;80;21057;-74
2022/04/21 02:50:32;;;;;;;76.90;34.53;;;;;;;6.99;91.39;100180.42;1733154;81;21112;-74
2022/04/21 02:52:59;;;;;;;67.47;33.07;;;;;;;7.00;91.46;100181.27;1733016;82;21097;-74
2022/04/21 02:58:14;;;;;;;63.57;31.63;;;;;;;6.98;91.49;100179.14;1732669;81;21079;-77
2022/04/21 03:00:42;;;;;;;42.27;23.03;;;;;;;6.98;91.43;100180.45;1745056;82;22086;-74
2022/04/21 03:03:09;;;;;;;32.40;18.77;;;;;;;6.96;91.57;100177.90;1734683;81;21094;-74
2022/04/21 03:05:36;;;;;;;29.00;18.27;;;;;;;6.97;91.60;100177.45;1736331;81;21032;-74
2022/04/21 03:08:04;;;;;;;28.53;17.60;;;;;;;6.99;91.68;100179.58;1727010;81;20985;-75
2022/04/21 03:10:32;;;;;;;249.27;69.53;;;;;;;6.99;91.48;100177.81;1738454;82;21000;-74
2022/04/21 03:12:59;;;;;;;86.23;33.83;;;;;;;6.98;91.49;100181.30;1736531;82;21053;-74
2022/04/21 03:15:26;;;;;;;69.57;28.37;;;;;;;6.98;91.49;100184.36;1728427;82;21787;-77
2022/04/21 03:17:53;;;;;;;46.43;25.47;;;;;;;6.98;91.54;100189.11;1732529;81;21008;-75
2022/04/21 03:25:52;;;;;;;28.73;18.67;;;;;;;6.96;91.38;100189.63;1731016;82;21494;-74
2022/04/21 03:28:19;;;;;;;33.43;20.40;;;;;;;6.93;91.47;100188.41;1725985;82;21202;-75
2022/04/21 03:30:46;;;;;;;38.70;22.67;;;;;;;6.93;91.55;100190.55;1746351;81;21078;-74
2022/04/21 03:33:13;;;;;;;25.87;16.97;;;;;;;6.91;91.45;100192.34;1734399;81;21051;-74
2022/04/21 03:35:42;;;;;;;37.57;22.63;;;;;;;6.89;91.54;100190.20;1739135;81;20987;-75
2022/04/21 03:38:10;;;;;;;42.63;26.50;;;;;;;6.92;91.59;100203.61;1732551;81;21266;-75
2022/04/21 03:40:37;;;;;;;50.93;26.50;;;;;;;6.90;91.62;100207.57;1746736;81;21101;-74
2022/04/21 03:43:08;;;;;;;122.77;46.03;;;;;;;6.91;91.71;100211.03;1743693;81;21473;-74
2022/04/21 03:45:35;;;;;;;78.67;35.13;;;;;;;6.91;91.69;100214.48;1738956;81;21088;-74
2022/04/21 03:48:02;;;;;;;54.57;25.80;;;;;;;6.90;91.56;100210.59;1734951;82;21035;-74
2022/04/21 03:50:31;;;;;;;41.87;21.30;;;;;;;6.89;91.60;100210.20;1741943;82;21080;-84
2022/04/21 03:52:59;;;;;;;37.00;21.23;;;;;;;6.88;91.65;100215.86;1734525;81;21137;-82
2022/04/21 03:55:26;;;;;;;30.97;18.93;;;;;;;6.89;91.60;100214.11;1732464;82;21584;-74
2022/04/21 03:57:53;;;;;;;31.00;18.17;;;;;;;6.89;91.64;100217.56;1740641;81;21474;-73
2022/04/21 04:00:21;;;;;;;26.57;17.50;;;;;;;6.88;91.62;100205.44;1735368;80;21531;-76
2022/04/21 04:02:48;;;;;;;26.70;16.87;;;;;;;6.90;91.70;100207.99;1741275;80;21100;-76
2022/04/21 04:05:16;;;;;;;25.90;16.23;;;;;;;6.92;91.74;100212.73;1722610;81;21147;-85
2022/04/21 04:13:19;;;;;;;25.80;16.03;;;;;;;6.91;91.61;100209.72;1746220;81;21064;-75
2022/04/21 04:15:50;;;;;;;24.93;15.70;;;;;;;6.91;91.70;100214.48;1746044;80;21528;-75
2022/04/21 04:18:18;;;;;;;24.20;15.87;;;;;;;6.92;91.69;100212.73;1730753;81;21154;-76
2022/04/21 04:20:46;;;;;;;29.43;18.83;;;;;;;6.91;91.71;100207.13;1740105;81;20915;-75
2022/04/21 04:23:20;;;;;;;27.10;17.17;;;;;;;6.90;91.59;100211.91;1735490;82;21080;-75
2022/04/21 04:25:48;;;;;;;54.43;28.27;;;;;;;6.90;91.74;100215.39;1729999;81;21527;-75
2022/04/21 04:28:16;;;;;;;40.10;22.60;;;;;;;6.88;91.61;100221.08;1734591;81;21046;-75
2022/04/21 04:30:43;;;;;;;30.97;18.70;;;;;;;6.86;91.62;100212.89;1737694;81;21187;-75
2022/04/21 04:33:10;;;;;;;28.77;18.47;;;;;;;6.86;91.77;100216.34;1730407;81;21082;-75
2022/04/21 04:35:38;;;;;;;28.70;18.00;;;;;;;6.86;91.78;100215.04;1740878;80;21103;-75
2022/04/21 04:38:06;;;;;;;28.50;17.53;;;;;;;6.86;91.80;100205.92;1740481;80;21063;-75
2022/04/21 04:40:33;;;;;;;28.03;16.47;;;;;;;6.86;91.76;100206.37;1727191;81;21310;-85
2022/04/21 04:43:01;;;;;;;29.83;16.33;;;;;;;6.87;91.95;100206.35;1738220;81;21101;-75
2022/04/21 04:48:15;;;;;;;25.73;16.10;;;;;;;6.91;91.93;100209.72;1738139;81;20973;-83
2022/04/21 04:50:42;;;;;;;26.30;16.20;;;;;;;6.92;92.02;100210.13;1743297;82;21487;-75
2022/04/21 04:53:10;;;;;;;26.67;16.23;;;;;;;6.90;91.82;100210.18;1737037;81;21638;-75
2022/04/21 04:55:37;;;;;;;22.87;15.03;;;;;;;6.89;91.84;100211.05;1746068;81;21118;-74
2022/04/21 04:58:04;;;;;;;24.10;15.80;;;;;;;6.91;91.95;100203.21;1730737;81;21021;-75
2022/04/21 05:00:31;;;;;;;35.53;19.07;;;;;;;6.95;92.02;100214.41;1738808;82;21154;-74
2022/04/21 05:02:59;;;;;;;62.27;28.47;;;;;;;6.95;91.89;100210.05;1741889;82;21604;-78
2022/04/21 05:05:26;;;;;;;32.70;19.33;;;;;;;6.96;91.98;100216.98;1740567;80;21036;-76
2022/04/21 05:07:54;;;;;;;36.47;20.47;;;;;;;6.98;91.98;100210.41;1721576;82;21109;-75
2022/04/21 05:10:23;;;;;;;31.97;19.37;;;;;;;7.00;91.98;100213.84;1711244;81;21450;-75
2022/04/21 05:12:50;;;;;;;25.23;16.20;;;;;;;7.04;92.04;100212.86;1741795;81;21055;-80
2022/04/21 05:15:18;;;;;;;24.70;15.60;;;;;;;7.07;92.01;100218.02;1743666;81;21024;-75
2022/04/21 05:17:46;;;;;;;22.77;15.20;;;;;;;7.08;92.06;100211.45;1728826;82;21001;-74
2022/04/21 05:20:15;;;;;;;23.73;14.83;;;;;;;7.11;91.96;100214.42;1721854;82;21124;-74
2022/04/21 05:22:47;;;;;;;23.50;15.60;;;;;;;7.11;91.91;100210.06;1735418;81;21648;-76
2022/04/21 05:25:13;;;;;;;29.82;17.25;;;;;;;7.17;92.13;100206.89;1727155;81;21024;-74
2022/04/21 05:27:41;;;;;;;22.23;14.50;;;;;;;7.21;92.07;100204.63;1738373;80;21047;-86
2022/04/21 05:32:58;;;;;;;20.83;14.00;;;;;;;7.24;91.89;100200.19;1738959;82;21123;-75
2022/04/21 05:35:27;;;;;;;19.90;13.13;;;;;;;7.24;91.81;100205.39;1730318;81;21111;-74
2022/04/21 05:37:55;;;;;;;20.13;13.40;;;;;;;7.27;91.86;100199.25;1717577;81;21044;-74
2022/04/21 05:40:24;;;;;;;18.73;12.77;;;;;;;7.28;91.80;100195.28;1729102;81;21056;-75
2022/04/21 05:42:55;;;;;;;22.00;14.70;;;;;;;7.30;91.85;100205.23;1724902;82;21012;-74
2022/04/21 05:45:23;;;;;;;20.17;13.30;;;;;;;7.33;91.82;100207.75;1730049;81;21139;-74
2022/04/21 05:47:52;;;;;;;21.80;13.63;;;;;;;7.34;91.63;100205.56;1723876;82;21076;-75
2022/04/21 05:50:21;;;;;;;16.67;12.20;;;;;;;7.37;91.67;100209.81;1719145;81;21013;-74
2022/04/21 05:52:52;;;;;;;24.60;16.43;;;;;;;7.41;91.74;100211.46;1724935;81;21546;-75
2022/04/21 05:55:20;;;;;;;22.80;13.77;;;;;;;7.45;91.63;100212.22;1747352;80;21026;-74
2022/04/21 05:57:47;;;;;;;21.37;14.07;;;;;;;7.50;91.75;100220.78;1760667;81;21064;-86
2022/04/21 06:00:16;;;;;;;21.27;13.37;;;;;;;7.54;91.73;100218.52;1752257;81;21085;-74
2022/04/21 06:02:43;;;;;;;21.70;13.47;;;;;;;7.55;91.51;100222.83;1739308;80;21058;-76
2022/04/21 06:05:11;;;;;;;20.67;14.00;;;;;;;7.58;91.64;100218.37;1732300;81;21116;-74
2022/04/21 06:07:39;;;;;;;19.60;13.07;;;;;;;7.64;91.59;100217.80;1752023;81;21034;-73
2022/04/21 06:10:08;;;;;;;22.53;14.47;;;;;;;7.68;91.54;100218.13;1726967;81;21181;-74
2022/04/21 06:12:36;;;;;;;21.50;13.63;;;;;;;7.72;91.45;100222.35;1751668;81;21049;-77
2022/04/21 06:15:05;;;;;;;21.03;13.17;;;;;;;7.74;91.42;100224.48;1755120;81;21049;-80
2022/04/21 06:17:32;;;;;;;20.03;12.97;;;;;;;7.75;91.36;100226.17;1736972;81;21077;-76
2022/04/21 06:19:59;;;;;;;20.70;13.70;;;;;;;7.74;91.27;100226.63;1734005;82;21542;-75
2022/04/21 06:22:26;;;;;;;19.90;13.37;;;;;;;7.77;91.40;100229.15;1728795;81;21086;-75
2022/04/21 06:24:53;;;;;;;19.87;12.60;;;;;;;7.80;91.37;100229.06;1735723;82;21056;-76
2022/04/21 06:27:20;;;;;;;20.70;13.13;;;;;;;7.82;91.27;100223.36;1724868;81;21072;-76
2022/04/21 06:29:47;;;;;;;19.10;13.17;;;;;;;7.82;91.23;100220.75;1730967;81;20920;-75
2022/04/21 06:32:15;;;;;;;17.97;12.60;;;;;;;7.85;91.35;100227.63;1724501;82;21040;-88
2022/04/21 06:34:42;;;;;;;19.63;13.53;;;;;;;7.89;91.50;100231.84;1737091;80;21258;-86
2022/04/21 06:37:09;;;;;;;18.50;12.63;;;;;;;7.92;91.36;100224.39;1739737;82;20993;-74
2022/04/21 06:39:36;;;;;;;20.40;14.03;;;;;;;7.95;91.36;100232.12;1736875;80;21023;-74
2022/04/21 06:42:04;;;;;;;19.97;12.90;;;;;;;7.98;91.44;100228.12;1718321;82;21055;-75
2022/04/21 06:50:06;;;;;;;22.77;15.07;;;;;;;8.10;91.29;100236.91;1741501;80;21033;-74
2022/04/21 06:52:34;;;;;;;19.43;13.83;;;;;;;8.16;91.47;100241.09;1731312;81;21031;-73
2022/04/21 06:55:01;;;;;;;20.77;14.17;;;;;;;8.19;91.20;100241.85;1730112;82;20985;-73
2022/04/21 06:57:28;;;;;;;18.23;13.73;;;;;;;8.20;90.93;100249.23;1741485;81;21059;-73
2022/04/21 06:59:55;;;;;;;18.80;13.93;;;;;;;8.24;90.95;100249.55;1737529;81;21558;-92
2022/04/21 07:02:27;;;;;;;17.43;13.63;;;;;;;8.25;90.79;100258.63;1706189;82;21421;-82
2022/04/21 07:04:57;;;;;;;18.53;13.93;;;;;;;8.26;90.82;100262.97;1725962;81;21032;-86
2022/04/21 07:07:25;;;;;;;18.97;12.90;;;;;;;8.25;90.77;100263.00;1691566;81;21039;-74
2022/04/21 07:09:53;;;;;;;19.13;13.33;;;;;;;8.26;90.84;100266.05;1717521;81;21102;-74
2022/04/21 07:12:28;;;;;;;18.57;13.90;;;;;;;8.29;90.87;100265.95;1735294;81;21195;-74
2022/04/21 07:15:02;;;;;;;21.37;13.27;;;;;;;8.33;90.83;100263.63;1709413;82;21095;-73
2022/04/21 07:17:31;;;;;;;18.53;13.67;;;;;;;8.36;90.57;100263.99;1727562;81;21023;-74
2022/04/21 07:20:00;;;;;;;17.07;13.17;;;;;;;8.38;90.59;100264.81;1743686;80;20978;-85
2022/04/21 07:22:27;;;;;;;19.07;13.60;;;;;;;8.44;90.64;100260.73;1732738;81;21027;-73
2022/04/21 07:24:56;;;;;;;20.60;14.87;;;;;;;8.53;90.60;100262.20;1741097;81;21541;-74
2022/04/21 07:27:24;;;;;;;19.13;14.60;;;;;;;8.60;90.58;100270.27;1720781;81;20929;-73
2022/04/21 07:29:51;;;;;;;17.83;14.20;;;;;;;8.65;90.48;100272.30;1747199;81;21036;-74
2022/04/21 07:32:19;;;;;;;20.83;14.53;;;;;;;8.71;90.52;100270.79;1738619;80;21024;-73
2022/04/21 07:34:47;;;;;;;20.87;14.20;;;;;;;8.76;90.45;100271.50;1743717;81;21071;-73
2022/04/21 07:37:14;;;;;;;19.00;14.43;;;;;;;8.76;89.99;100277.16;1714507;82;21096;-77
2022/04/21 07:39:43;;;;;;;19.90;14.40;;;;;;;8.80;90.22;100278.33;1728416;80;21518;-72
2022/04/21 07:42:11;;;;;;;19.27;15.30;;;;;;;8.88;90.26;100279.41;1735875;81;21072;-74
2022/04/21 07:44:39;;;;;;;21.10;15.80;;;;;;;8.94;90.46;100283.12;1737640;82;21040;-73
2022/04/21 07:47:07;;;;;;;19.30;15.17;;;;;;;9.01;90.31;100281.18;1730167;81;21027;-74
2022/04/21 07:49:48;;;;;;;22.20;16.07;;;;;;;9.07;90.29;100281.82;1737587;81;21126;-73
2022/04/21 07:55:18;;;;;;;19.37;15.17;;;;;;;9.18;89.98;100282.78;1736602;82;21029;-73
2022/04/21 07:57:47;;;;;;;19.83;15.27;;;;;;;9.28;89.70;100285.93;1741707;80;21008;-74
2022/04/21 08:00:17;;;;;;;18.70;14.73;;;;;;;9.35;89.67;100283.06;1738162;82;21228;-73
2022/04/21 08:02:46;;;;;;;19.15;14.93;;;;;;;9.41;89.38;100283.77;1731468;81;21123;-73
2022/04/21 08:05:16;;;;;;;20.37;15.70;;;;;;;9.46;89.46;100283.16;1736738;80;20997;-74
2022/04/21 08:07:44;;;;;;;18.90;14.65;;;;;;;9.49;89.48;100286.52;1733949;82;21001;-73
2022/04/21 08:10:14;;;;;;;19.60;14.80;;;;;;;9.60;89.61;100286.15;1719888;82;21015;-74
2022/04/21 08:12:45;;;;;;;18.90;14.97;;;;;;;9.67;89.46;100290.27;1735986;81;21584;-74
2022/04/21 08:15:16;;;;;;;17.40;13.93;;;;;;;9.70;89.22;100295.40;1745879;81;22181;-74
2022/04/21 08:17:43;;;;;;;18.37;14.07;;;;;;;9.72;89.11;100289.62;1724851;82;21514;-75
2022/04/21 08:20:11;;;;;;;17.17;13.60;;;;;;;9.71;88.77;100296.25;1728349;82;21029;-75
2022/04/21 08:22:39;;;;;;;19.93;14.83;;;;;;;9.70;88.83;100291.47;1733581;82;21068;-75
2022/04/21 08:33:16;;;;;;;17.23;12.83;;;;;;;9.90;88.81;100288.14;1719577;82;21584;-75
2022/04/21 08:35:45;;;;;;;18.90;13.63;;;;;;;9.96;88.47;100286.60;1744604;81;21011;-88
2022/04/21 08:38:13;;;;;;;18.20;13.10;;;;;;;10.02;88.31;100288.98;1729432;81;21084;-75
2022/04/21 08:40:53;;;;;;;19.70;14.00;;;;;;;10.04;87.96;100290.26;1729044;82;22099;-75
2022/04/21 08:43:21;;;;;;;;;;;;;;;10.10;87.97;100294.41;1738409;82;21004;-75
2022/04/21 08:45:51;;;;;;;18.87;13.90;;;;;;;10.12;87.36;100298.69;1738444;80;20146;-75
2022/04/21 08:48:21;;;;;;;18.87;13.60;;;;;;;10.09;87.35;100301.42;1746737;82;21039;-76
2022/04/21 08:50:49;;;;;;;19.20;13.50;;;;;;;10.02;86.97;100307.78;1735402;82;21053;-76
2022/04/21 08:53:24;;;;;;;16.87;12.80;;;;;;;10.00;87.32;100308.28;1719813;82;21120;-75
2022/04/21 08:55:52;;;;;;;17.85;13.13;;;;;;;9.96;86.79;100313.25;1732461;80;20992;-75
2022/04/21 08:58:20;;;;;;;20.57;14.23;;;;;;;9.90;86.89;100310.85;1727672;82;21023;-75
2022/04/21 09:00:48;;;;;;;19.37;14.13;;;;;;;9.88;86.89;100313.52;1743314;82;21069;-76
2022/04/21 09:03:15;;;;;;;18.00;13.37;;;;;;;9.88;86.91;100312.20;1729823;82;21065;-75
2022/04/21 09:05:44;;;;;;;20.00;14.07;;;;;;;9.88;87.06;100313.52;1726915;82;21104;-75
2022/04/21 09:08:26;;;;;;;20.23;12.90;;;;;;;9.90;86.98;100320.02;1736257;81;21051;-74
2022/04/21 09:11:10;;;;;;;17.73;12.83;;;;;;;9.85;86.79;100321.48;1730628;81;21592;-78
2022/04/21 09:13:44;;;;;;;19.17;12.93;;;;;;;9.80;86.68;100317.70;1724229;82;21015;-74
2022/04/21 09:16:25;;;;;;;21.60;14.53;;;;;;;9.80;86.92;100323.40;1724858;81;21041;-73
2022/04/21 09:18:57;;;;;;;18.35;13.45;;;;;;;9.80;86.97;100327.33;1728275;81;21206;-74
2022/04/21 09:21:26;;;;;;;20.37;13.23;;;;;;;9.79;86.93;100320.39;1735794;82;21087;-75
2022/04/21 09:23:54;;;;;;;20.80;14.37;;;;;;;9.83;86.64;100327.21;1705056;82;21037;-75
2022/04/21 09:26:22;;;;;;;20.03;13.77;;;;;;;9.83;86.73;100327.21;1668111;83;21185;-80
2022/04/21 09:28:57;;;;;;;19.73;13.20;;;;;;;9.88;86.88;100323.98;1719383;82;21629;-75
2022/04/21 09:31:29;;;;;;;22.67;15.08;;;;;;;9.91;86.58;100321.25;1743971;81;21627;-74
2022/04/21 09:33:56;;;;;;;20.17;13.43;;;;;;;9.91;86.39;100323.02;1757350;81;21580;-77
2022/04/21 09:36:23;;;;;;;21.90;14.80;;;;;;;9.85;86.28;100320.17;1757892;81;21025;-78
2022/04/21 09:39:02;;;;;;;21.67;14.90;;;;;;;9.81;86.11;100322.05;1744320;80;21469;-78
2022/04/21 09:41:31;;;;;;;22.02;14.55;;;;;;;9.80;85.94;100322.94;1749932;81;21058;-78
2022/04/21 09:46:56;;;;;;;21.50;14.07;;;;;;;9.73;85.90;100321.92;1755938;81;21047;-78
2022/04/21 09:49:41;;;;;;;22.80;14.47;;;;;;;9.73;86.12;100327.16;1724798;81;21522;-77
2022/04/21 09:52:08;;;;;;;23.07;14.67;;;;;;;9.72;85.90;100322.81;1760963;81;21553;-78
2022/04/21 09:54:36;;;;;;;23.50;13.97;;;;;;;9.70;85.91;100325.50;1759544;81;21070;-80
2022/04/21 09:57:05;;;;;;;22.00;14.60;;;;;;;9.66;85.83;100327.80;1746421;81;21116;-79
2022/04/21 09:59:36;;;;;;;20.00;13.83;;;;;;;9.60;85.89;100332.80;1752934;81;21097;-76
2022/04/21 10:02:04;;;;;;;24.07;14.83;;;;;;;9.57;86.09;100335.98;1749622;81;20987;-78
2022/04/21 10:04:31;;;;;;;20.83;14.00;;;;;;;9.58;86.02;100334.59;1756371;81;21018;-75
2022/04/21 10:06:59;;;;;;;24.23;15.37;;;;;;;9.63;86.13;100329.68;1757754;81;20994;-75
2022/04/21 10:09:28;;;;;;;23.47;15.23;;;;;;;9.69;86.01;100331.62;1758340;81;21117;-73
2022/04/21 10:11:58;;;;;;;23.45;14.63;;;;;;;9.72;85.75;100328.05;1749963;80;21527;-74
2022/04/21 10:14:27;;;;;;;22.75;15.08;;;;;;;9.69;85.66;100334.23;1758503;81;20994;-74
2022/04/21 10:16:54;;;;;;;22.60;14.63;;;;;;;9.67;85.56;100329.53;1746975;81;21549;-77
2022/04/21 10:19:24;;;;;;;21.37;14.50;;;;;;;9.70;85.56;100329.42;1757074;81;21039;-73
2022/04/21 10:22:02;;;;;;;22.77;14.77;;;;;;;9.75;85.76;100330.09;1746863;81;21318;-73
2022/04/21 10:24:35;;;;;;;24.67;14.90;;;;;;;9.80;85.70;100332.09;1747441;81;20982;-74
2022/04/21 10:27:03;;;;;;;22.33;15.50;;;;;;;9.80;85.61;100324.70;1751510;81;21041;-75
2022/04/21 10:29:31;;;;;;;22.00;15.00;;;;;;;9.83;85.51;100328.52;1758232;81;21080;-76
2022/04/21 10:32:03;;;;;;;22.33;14.77;;;;;;;9.87;85.44;100335.84;1754622;81;21045;-73
2022/04/21 10:34:42;;;;;;;24.77;15.37;;;;;;;9.90;85.54;100331.34;1756210;81;21293;-73
2022/04/21 10:37:21;;;;;;;24.10;15.60;;;;;;;9.93;85.46;100331.69;1748227;81;21006;-73
2022/04/21 10:40:06;;;;;;;23.95;15.70;;;;;;;9.99;85.35;100329.69;1732749;81;21104;-73
2022/04/21 10:42:57;;;;;;;24.50;15.17;;;;;;;10.03;85.16;100333.05;1751336;81;21479;-72
2022/04/21 10:45:31;;;;;;;22.80;15.27;;;;;;;10.05;85.13;100329.92;1755667;81;21053;-74
2022/04/21 10:48:13;;;;;;;21.42;14.28;;;;;;;10.07;84.91;100333.81;1746866;81;21089;-75
2022/04/21 10:50:43;;;;;;;23.30;14.35;;;;;;;10.13;85.13;100330.97;1735957;81;21026;-81
2022/04/21 10:58:50;;;;;;;22.03;13.73;;;;;;;10.13;84.63;100327.03;1739995;81;21468;-73
2022/04/21 11:01:28;;;;;;;19.30;13.77;;;;;;;10.07;84.54;100329.42;1759694;80;21531;-79
2022/04/21 11:04:11;;;;;;;20.70;13.63;;;;;;;10.06;84.35;100330.34;1756114;81;20986;-74
2022/04/21 11:06:44;;;;;;;21.65;14.35;;;;;;;10.05;84.56;100330.77;1746694;81;21118;-77
2022/04/21 11:09:35;;;;;;;21.60;14.70;;;;;;;10.11;84.61;100332.77;1739709;81;20998;-74
2022/04/21 11:12:05;;;;;;;19.03;13.80;;;;;;;10.18;84.60;100330.34;1732521;81;21016;-74
2022/04/21 11:14:36;;;;;;;22.37;14.23;;;;;;;10.25;84.39;100327.45;1702922;82;21115;-73
2022/04/21 11:17:06;;;;;;;20.33;13.67;;;;;;;10.38;84.50;100334.42;1708504;83;21537;-74
2022/04/21 11:19:36;;;;;;;20.55;13.28;;;;;;;10.49;84.41;100334.02;1704899;83;27563;-74
2022/04/21 11:22:11;;;;;;;22.20;15.48;;;;;;;10.56;84.04;100332.89;1703777;83;21077;-74
2022/04/21 11:25:01;;;;;;;26.27;19.17;;;;;;;10.60;83.80;100335.77;1706723;83;21542;-74
2022/04/21 11:27:29;;;;;;;;;;;;;;;10.67;83.83;100339.03;1697824;82;21135;-75
2022/04/21 11:30:02;;;;;;;28.65;19.80;;;;;;;10.73;83.46;100332.70;1698792;83;20200;-74
2022/04/21 11:32:30;;;;;;;23.50;15.05;;;;;;;10.70;83.27;100329.28;1700061;83;21090;-74
2022/04/21 11:35:04;;;;;;;20.00;13.00;;;;;;;10.71;83.15;100325.73;1695826;83;21056;-81
2022/04/21 11:37:55;;;;;;;19.75;14.28;;;;;;;10.74;83.23;100329.16;1707298;83;21541;-74
2022/04/21 11:40:39;;;;;;;21.00;14.07;;;;;;;10.74;83.31;100326.53;1702383;82;21129;-74
2022/04/21 11:43:16;;;;;;;18.82;13.28;;;;;;;10.77;83.51;100327.72;1701329;82;21024;-74
2022/04/21 11:46:02;;;;;;;20.00;14.75;;;;;;;10.77;83.25;100329.03;1708205;83;21057;-74
2022/04/21 11:48:37;;;;;;;19.80;13.80;;;;;;;10.73;83.27;100324.38;1715992;81;21091;-75
2022/04/21 11:51:05;;;;;;;23.02;14.43;;;;;;;10.70;82.96;100328.43;1716785;81;21329;-75
2022/04/21 11:53:40;;;;;;;19.92;13.80;;;;;;;10.62;82.67;100327.87;1742519;80;21293;-74
2022/04/21 11:56:09;;;;;;;33.30;24.00;;;;;;;10.56;82.76;100319.78;1710543;82;20980;-74
2022/04/21 11:58:38;;;;;;;31.20;23.25;;;;;;;10.57;82.84;100322.79;1711987;82;21034;-74
2022/04/21 12:06:53;;;;;;;19.32;13.68;;;;;;;10.74;82.78;100321.29;1743087;81;21116;-74
2022/04/21 12:09:23;;;;;;;18.87;13.32;;;;;;;10.97;82.97;100313.36;1750281;80;21021;-75
2022/04/21 12:11:58;;;;;;;;;;;;;;;11.14;82.24;100313.55;1758186;81;21495;-73
2022/04/21 12:14:27;;;;;;;21.73;14.55;;;;;;;11.26;82.04;100310.88;1743252;81;20163;-74
2022/04/21 12:17:03;;;;;;;19.12;14.63;;;;;;;11.43;82.27;100314.11;1750501;80;21116;-76
2022/04/21 12:19:41;;;;;;;20.95;15.58;;;;;;;11.53;81.80;100298.84;1746641;80;21078;-73
2022/04/21 12:22:16;;;;;;;20.68;14.68;;;;;;;11.56;81.56;100300.87;1744296;81;21030;-75
2022/04/21 12:24:48;;;;;;;23.07;14.45;;;;;;;11.60;81.37;100300.27;1741461;80;21440;-74
2022/04/21 12:27:19;;;;;;;24.52;15.38;;;;;;;11.69;81.34;100296.39;1740254;81;21136;-80